Terminal Aerodrome Forecast
Issued by NWS

Home | Current Version | Previous Version | Text Only | Print | Product List | Glossary On
Versions: 1 2 3 4 5 6 7 8 9 10 11 12 13 14 15 16 17 18 19 20 21 22 23 24
000
FTUS41 KOKX 300200 AAA
TAFSWF
TAF AMD
KSWF 300241Z 3003/3106 VRB05KT P6SM FEW250
      TEMPO 3009/3012 5SM BR SCT020
     FM301500 19007KT P6SM SCT030 BKN150
     FM310100 VRB04KT P6SM BKN040 BKN100
      AMD NOT SKED=

USA.gov is the U.S. government's official web portal to all federal, state and local government web resources and services.